Terminal Aerodrome Forecast
Issued by NWS

Home | Current Version | Previous Version | Text Only | Print | Product List | Glossary On
Versions: 1 2 3 4 5 6 7 8 9 10 11 12 13 14 15 16 17 18 19 20 21 22 23 24 25 26 27 28 29 30
000
FTUS46 KLOX 300305 AAB
TAFLAX
TAF AMD
KLAX 300305Z 3003/3106 27012KT P6SM OVC008
     FM300600 25005KT P6SM OVC007
     FM301000 VRB03KT 5SM BR OVC010
     FM301700 25005KT 5SM HZ BKN012
     FM301900 25011KT P6SM SKC
     FM310300 25008KT 6SM BR BKN008=

USA.gov is the U.S. government's official web portal to all federal, state and local government web resources and services.